Rushville, Indiana
Current Conditions -  °F | °C
As of 2:53 AM on Saturday 22 Nov 2014 (Local Time) from KGEZ Reporting Station
Overcast Overcast  
Wind Chill: 29°   Ceiling: 2300
Heat Index: 35°   Visibility: 10mi
Dew Point: 20°   Wind: 8mph
Humidity: 54%   Direction: 180°S
Pressure: 30.29"   Gusts: NA
Location:  39.61°N, 85.44°W
Report Text: KGEZ 220753Z AUTO 18007KT 10SM BKN023 OVC035 02/M07 A3029 RMK AO2 SLP264 T00171067
Loading
Personal Weather Stations






























Interactive Weather Map New forecast layout! Learn more

10-Day Weather Forecast

Advertisements
Track Severe Weather on mobile